Time;durP1;ratioP1;P1;durP2;ratioP2;P2;SDS_P1;SDS_P2;PMS_P1;PMS_P2;Temp;Humidity;BMP_temperature;BMP_pressure;BME280_temperature;BME280_humidity;BME280_pressure;Samples;Min_cycle;Max_cycle;Signal;HPM_P1;HPM_P2
2022/12/13 00:04:39;;;;;;;31.20;14.63;;;;;;;-2.23;100.00;98365.09;4322041;81;21511;-86
2022/12/13 00:10:40;;;;;;;26.13;14.13;;;;;;;-2.24;100.00;98369.41;4343283;81;20956;-87
2022/12/13 00:16:46;;;;;;;35.37;16.97;;;;;;;-2.28;100.00;98369.77;4352790;81;20962;-87
2022/12/13 00:22:51;;;;;;;39.03;18.23;;;;;;;-2.29;100.00;98379.72;4326962;81;20952;-87
2022/12/13 00:28:53;;;;;;;35.10;18.77;;;;;;;-2.28;100.00;98383.17;4339704;80;21023;-87
2022/12/13 00:34:56;;;;;;;21.10;11.73;;;;;;;-2.33;100.00;98397.50;4351210;81;21445;-86
2022/12/13 00:40:57;;;;;;;16.90;9.10;;;;;;;-2.42;100.00;98385.13;4350353;81;21849;-86
2022/12/13 00:46:59;;;;;;;26.73;11.67;;;;;;;-2.50;100.00;98393.36;4349114;81;21048;-86
2022/12/13 00:53:01;;;;;;;37.87;18.10;;;;;;;-2.50;100.00;98396.58;4365382;81;21595;-87
2022/12/13 00:59:03;;;;;;;36.43;18.77;;;;;;;-2.48;100.00;98402.44;4341287;80;21005;-86
2022/12/13 01:05:05;;;;;;;39.17;18.03;;;;;;;-2.51;100.00;98409.74;4338260;80;20992;-86
2022/12/13 01:11:08;;;;;;;41.90;17.87;;;;;;;-2.51;100.00;98406.53;4357782;81;21512;-86
2022/12/13 01:17:10;;;;;;;37.57;18.80;;;;;;;-2.53;100.00;98402.55;4335698;80;21031;-87
2022/12/13 01:23:11;;;;;;;40.90;19.03;;;;;;;-2.57;100.00;98413.11;4346630;81;21909;-86
2022/12/13 01:29:13;;;;;;;36.77;17.90;;;;;;;-2.61;100.00;98414.79;4338226;80;20994;-87
2022/12/13 01:35:14;;;;;;;32.13;15.47;;;;;;;-2.62;100.00;98413.22;4362517;80;21957;-87
2022/12/13 01:41:20;;;;;;;26.97;14.23;;;;;;;-2.64;100.00;98414.59;4349342;81;20960;-86
2022/12/13 01:47:48;;;;;;;29.90;13.70;;;;;;;-2.70;100.00;98416.61;4356863;80;21063;-86
2022/12/13 01:53:50;;;;;;;28.97;13.67;;;;;;;-2.71;100.00;98411.56;4332542;81;20995;-87
2022/12/13 01:59:54;;;;;;;26.63;13.87;;;;;;;-2.76;100.00;98422.38;4308800;81;21651;-86
2022/12/13 02:06:17;;;;;;;22.67;13.63;;;;;;;-2.84;100.00;98421.22;4317437;81;21038;-87
2022/12/13 02:12:26;;;;;;;31.70;14.87;;;;;;;-2.86;100.00;98434.11;4315639;81;21527;-87
2022/12/13 02:19:10;;;;;;;29.80;15.03;;;;;;;-2.87;100.00;98443.79;4292466;81;20980;-86
2022/12/13 02:25:44;;;;;;;31.20;14.50;;;;;;;-2.92;100.00;98432.64;4309144;81;21544;-86
2022/12/13 02:32:02;;;;;;;25.80;13.70;;;;;;;-2.96;100.00;98434.32;4303715;81;21606;-87
2022/12/13 02:38:18;;;;;;;31.63;14.70;;;;;;;-2.98;100.00;98440.55;4313171;81;22262;-87
2022/12/13 02:44:27;;;;;;;32.48;17.85;;;;;;;-3.02;100.00;98437.44;4297861;81;21095;-87
2022/12/13 02:50:33;;;;;;;26.83;13.57;;;;;;;-3.06;100.00;98437.77;4294108;81;20973;-87
2022/12/13 02:56:38;;;;;;;31.23;15.72;;;;;;;-3.08;100.00;98443.96;4298368;81;21192;-87
2022/12/13 03:03:23;;;;;;;23.50;10.90;;;;;;;-3.11;100.00;98443.22;4293043;80;20993;-87
2022/12/13 03:09:56;;;;;;;29.77;16.03;;;;;;;-3.15;100.00;98444.39;4305189;81;21463;-87
2022/12/13 03:16:02;;;;;;;34.20;17.23;;;;;;;-3.15;100.00;98449.74;4304976;81;21085;-87
2022/12/13 03:22:05;;;;;;;34.10;16.87;;;;;;;-3.17;100.00;98449.24;4294012;81;21952;-87
2022/12/13 03:28:07;;;;;;;30.37;15.67;;;;;;;-3.21;100.00;98463.76;4293758;81;20981;-88
2022/12/13 03:34:09;;;;;;;35.20;17.70;;;;;;;-3.22;100.00;98466.20;4213064;82;21012;-88
2022/12/13 03:40:11;;;;;;;34.87;17.77;;;;;;;-3.23;100.00;98483.90;4305955;81;20941;-87
2022/12/13 03:46:13;;;;;;;32.90;17.30;;;;;;;-3.22;100.00;98482.80;4303858;80;21056;-87
2022/12/13 03:52:20;;;;;;;31.73;17.87;;;;;;;-3.23;100.00;98490.59;4304411;80;20990;-87
2022/12/13 03:58:22;;;;;;;36.17;17.20;;;;;;;-3.24;100.00;98488.98;4317707;81;21043;-87
2022/12/13 04:04:23;;;;;;;35.67;18.07;;;;;;;-3.24;100.00;98492.47;4323274;81;21038;-87
2022/12/13 04:10:27;;;;;;;39.07;17.67;;;;;;;-3.24;100.00;98487.64;4331771;81;21034;-86
2022/12/13 04:16:28;;;;;;;33.77;16.23;;;;;;;-3.23;100.00;98495.95;4319886;81;21093;-87
2022/12/13 04:22:29;;;;;;;31.97;15.53;;;;;;;-3.23;100.00;98497.28;4349167;80;22034;-86
2022/12/13 04:28:31;;;;;;;26.73;14.57;;;;;;;-3.22;100.00;98498.86;4345088;80;21629;-86
2022/12/13 04:34:33;;;;;;;32.20;15.17;;;;;;;-3.26;100.00;98502.67;4358735;81;21582;-87
2022/12/13 04:40:34;;;;;;;27.07;13.97;;;;;;;-3.29;100.00;98507.28;4335404;81;22152;-86
2022/12/13 04:46:38;;;;;;;33.90;14.83;;;;;;;-3.27;100.00;98502.43;4338493;80;21062;-86
2022/12/13 04:53:13;;;;;;;29.27;14.97;;;;;;;-3.28;100.00;98514.23;4321288;81;21223;-87
2022/12/13 04:59:16;;;;;;;32.07;16.23;;;;;;;-3.31;100.00;98510.82;4306739;81;21941;-85
2022/12/13 05:05:17;;;;;;;29.00;15.13;;;;;;;-3.34;100.00;98506.59;4289615;81;21127;-87
2022/12/13 05:11:20;;;;;;;30.67;16.37;;;;;;;-3.35;100.00;98507.67;4297474;81;21073;-87
2022/12/13 05:17:22;;;;;;;30.23;15.97;;;;;;;-3.35;100.00;98513.02;4291353;81;21042;-86
2022/12/13 05:23:24;;;;;;;24.77;13.60;;;;;;;-3.36;100.00;98512.25;4304645;81;20977;-87
2022/12/13 05:29:26;;;;;;;26.47;14.30;;;;;;;-3.38;100.00;98513.08;4294716;80;21056;-86
2022/12/13 05:35:28;;;;;;;27.93;13.27;;;;;;;-3.36;100.00;98517.60;4210691;82;21057;-86
2022/12/13 05:41:33;;;;;;;28.00;13.17;;;;;;;-3.35;100.00;98513.02;4219375;82;21065;-86
2022/12/13 05:47:36;;;;;;;24.83;11.73;;;;;;;-3.38;100.00;98518.43;4314557;80;20968;-85
2022/12/13 05:53:40;;;;;;;26.13;14.17;;;;;;;-3.39;100.00;98520.06;4302060;81;21066;-87
2022/12/13 05:59:42;;;;;;;28.70;13.87;;;;;;;-3.41;100.00;98523.04;4310120;79;21048;-86
2022/12/13 06:05:46;;;;;;;26.43;12.90;;;;;;;-3.43;100.00;98523.88;4344471;80;21582;-85
2022/12/13 06:11:51;;;;;;;22.57;11.87;;;;;;;-3.43;100.00;98531.90;4317429;81;21006;-86
2022/12/13 06:17:53;;;;;;;20.40;11.70;;;;;;;-3.43;100.00;98527.89;4346647;80;20959;-86
2022/12/13 06:23:54;;;;;;;21.90;11.97;;;;;;;-3.42;100.00;98534.84;4337014;81;21015;-87
2022/12/13 06:29:55;;;;;;;22.87;10.93;;;;;;;-3.42;100.00;98548.22;4312952;81;20990;-86
2022/12/13 06:35:57;;;;;;;21.53;11.47;;;;;;;-3.45;100.00;98554.70;4348840;81;21468;-86
2022/12/13 06:42:01;;;;;;;21.60;12.07;;;;;;;-3.46;100.00;98545.87;4332581;81;21035;-86
2022/12/13 06:48:03;;;;;;;21.50;11.57;;;;;;;-3.48;100.00;98563.32;4353153;80;21078;-87
2022/12/13 06:54:05;;;;;;;26.47;13.13;;;;;;;-3.53;100.00;98562.87;4308423;81;20951;-87
2022/12/13 07:00:09;;;;;;;27.87;13.33;;;;;;;-3.50;100.00;98570.84;4323880;80;21633;-87
2022/12/13 07:06:15;;;;;;;26.70;13.07;;;;;;;-3.47;100.00;98580.95;4293039;81;21960;-86
2022/12/13 07:12:18;;;;;;;;;;;;;;;-3.44;100.00;98579.83;4295801;81;21000;-86
2022/12/13 07:18:19;;;;;;;27.30;13.17;;;;;;;-3.43;100.00;98592.67;4286499;81;20093;-86
2022/12/13 07:24:21;;;;;;;22.93;11.50;;;;;;;-3.40;100.00;98600.11;4315916;81;21021;-86
2022/12/13 07:30:22;;;;;;;24.17;11.33;;;;;;;-3.38;100.00;98597.38;4296602;81;21093;-87
2022/12/13 07:36:23;;;;;;;23.77;12.60;;;;;;;-3.34;100.00;98605.09;4309191;80;21921;-86
2022/12/13 07:42:25;;;;;;;30.77;13.80;;;;;;;-3.29;100.00;98608.99;4313628;80;21036;-86
2022/12/13 07:48:27;;;;;;;25.50;12.23;;;;;;;-3.23;100.00;98619.08;4300962;81;21003;-87
2022/12/13 07:54:28;;;;;;;23.20;12.10;;;;;;;-3.19;100.00;98612.04;4300858;81;20996;-86
2022/12/13 08:00:30;;;;;;;21.53;11.80;;;;;;;-3.16;100.00;98610.67;4307898;80;20996;-86
2022/12/13 08:06:37;;;;;;;23.57;11.67;;;;;;;-3.11;100.00;98610.02;4289716;81;20983;-86
2022/12/13 08:12:38;;;;;;;27.20;12.40;;;;;;;-3.06;100.00;98607.26;4303044;81;21012;-87
2022/12/13 08:18:39;;;;;;;20.47;11.27;;;;;;;-3.03;100.00;98613.36;4218417;82;20981;-87
2022/12/13 08:24:41;;;;;;;30.90;13.53;;;;;;;-2.95;100.00;98619.38;4298950;80;21025;-87
2022/12/13 08:30:42;;;;;;;24.73;13.50;;;;;;;-2.86;100.00;98630.18;4302606;80;20971;-86
2022/12/13 08:36:43;;;;;;;24.50;12.10;;;;;;;-2.83;100.00;98621.55;4297872;81;21521;-87
2022/12/13 08:42:44;;;;;;;30.27;15.23;;;;;;;-2.72;100.00;98627.77;4295450;80;21049;-86
2022/12/13 08:48:45;;;;;;;32.97;16.07;;;;;;;-2.59;100.00;98637.70;4300339;81;21008;-86
2022/12/13 08:54:47;;;;;;;29.70;14.63;;;;;;;-2.48;100.00;98643.11;4288050;81;21052;-87
2022/12/13 09:00:48;;;;;;;30.83;15.33;;;;;;;-2.40;100.00;98634.38;4287634;81;73955;-87
2022/12/13 09:06:50;;;;;;;29.30;14.80;;;;;;;-2.35;100.00;98638.84;4290254;82;21000;-87
2022/12/13 09:12:54;;;;;;;25.00;13.83;;;;;;;-2.37;100.00;98642.35;4290035;82;21058;-87
2022/12/13 09:18:56;;;;;;;27.37;14.07;;;;;;;-2.46;100.00;98629.41;4294455;82;21048;-87
2022/12/13 09:24:57;;;;;;;34.33;16.87;;;;;;;-2.43;100.00;98632.83;4300314;82;21077;-86
2022/12/13 09:30:59;;;;;;;35.00;17.23;;;;;;;-2.40;100.00;98637.05;4291160;82;21078;-88
2022/12/13 09:37:01;;;;;;;25.47;12.23;;;;;;;-2.41;100.00;98644.83;4274152;82;21531;-88
2022/12/13 09:43:03;;;;;;;26.30;13.97;;;;;;;-2.52;100.00;98636.74;4281190;82;20993;-87
2022/12/13 09:49:13;;;;;;;23.70;10.67;;;;;;;-2.45;100.00;98645.73;4295242;82;21119;-86
2022/12/13 09:55:27;;;;;;;20.87;10.43;;;;;;;-2.42;100.00;98639.77;4280668;82;21034;-86
2022/12/13 10:01:29;;;;;;;20.40;11.23;;;;;;;-2.30;100.00;98646.78;4185928;84;21033;-87
2022/12/13 10:07:30;;;;;;;22.97;11.17;;;;;;;-2.34;100.00;98644.43;4269979;82;20990;-88
2022/12/13 10:13:43;;;;;;;21.43;10.37;;;;;;;-2.38;100.00;98641.55;4284680;82;21921;-88
2022/12/13 10:19:50;;;;;;;21.80;9.50;;;;;;;-2.44;100.00;98643.28;4291581;82;20973;-86
2022/12/13 10:25:57;;;;;;;20.70;9.73;;;;;;;-2.53;100.00;98641.87;4297649;82;21940;-87
2022/12/13 10:32:01;;;;;;;17.23;9.07;;;;;;;-2.56;100.00;98638.98;4287721;82;20932;-87
2022/12/13 10:38:16;;;;;;;20.97;11.40;;;;;;;-2.51;100.00;98633.52;4279172;82;21036;-87
2022/12/13 10:44:23;;;;;;;20.72;10.75;;;;;;;-2.31;100.00;98623.19;4281641;82;20987;-87
2022/12/13 10:50:28;;;;;;;22.23;10.80;;;;;;;-2.33;100.00;98621.88;4282602;82;21566;-88
2022/12/13 10:56:40;;;;;;;28.73;13.07;;;;;;;-2.47;100.00;98628.61;4278352;82;20981;-86
2022/12/13 11:02:45;;;;;;;28.17;13.27;;;;;;;-2.63;100.00;98629.99;4271427;82;20965;-88
2022/12/13 11:08:47;;;;;;;26.02;14.03;;;;;;;-2.48;100.00;98636.41;4280279;82;21055;-88
2022/12/13 11:15:05;;;;;;;25.90;13.37;;;;;;;-2.38;100.00;98630.83;4295263;82;21052;-88
2022/12/13 11:21:08;;;;;;;26.25;14.25;;;;;;;-2.21;100.00;98624.86;4305989;82;21032;-86
2022/12/13 11:27:49;;;;;;;30.57;15.80;;;;;;;-1.99;100.00;98622.23;4303444;82;21092;-86
2022/12/13 11:34:04;;;;;;;35.05;16.00;;;;;;;-1.77;100.00;98610.20;4296548;82;22005;-88
2022/12/13 11:40:20;;;;;;;28.55;14.10;;;;;;;-1.57;100.00;98603.54;4286626;82;21090;-88
2022/12/13 11:46:44;;;;;;;27.07;13.55;;;;;;;-1.57;100.00;98594.95;4253921;82;21393;-89
2022/12/13 11:52:51;;;;;;;27.22;13.55;;;;;;;-1.57;100.00;98594.95;4268859;82;21187;-89
2022/12/13 11:59:22;;;;;;;30.00;12.80;;;;;;;-1.58;100.00;98615.38;4265435;82;21593;-88
2022/12/13 12:05:37;;;;;;;24.35;13.68;;;;;;;-1.55;100.00;98616.11;4278774;82;21925;-88
2022/12/13 12:12:01;;;;;;;;;;;;;;;-1.43;100.00;98612.32;4273111;82;20997;-88
2022/12/13 12:18:20;;;;;;;27.45;13.05;;;;;;;-1.57;100.00;98619.88;4196221;84;20514;-89
2022/12/13 12:24:56;;;;;;;27.00;14.68;;;;;;;-1.65;100.00;98619.29;4105744;85;21020;-89
2022/12/13 12:31:30;;;;;;;27.10;12.10;;;;;;;-1.70;100.00;98617.26;4096486;85;21730;-88
2022/12/13 12:37:54;;;;;;;35.58;15.48;;;;;;;-1.71;100.00;98621.05;4291164;80;21206;-89
2022/12/13 12:44:16;;;;;;;38.40;15.32;;;;;;;-1.69;100.00;98617.49;4282955;81;21028;-89
2022/12/13 12:50:35;;;;;;;26.87;13.13;;;;;;;-1.80;100.00;98617.48;4296345;82;21028;-88
2022/12/13 12:57:18;;;;;;;30.57;14.10;;;;;;;-1.84;100.00;98625.91;4295886;82;21020;-88
2022/12/13 13:03:29;;;;;;;25.70;13.60;;;;;;;-1.90;100.00;98626.58;4299890;82;21045;-88
2022/12/13 13:09:34;;;;;;;27.93;13.80;;;;;;;-1.97;100.00;98630.22;4297209;82;21040;-88
2022/12/13 13:15:42;;;;;;;25.03;14.30;;;;;;;-2.00;100.00;98634.05;4296141;82;22190;-88
2022/12/13 13:21:51;;;;;;;27.10;14.57;;;;;;;-1.98;100.00;98629.98;4297379;82;21142;-88
2022/12/13 13:28:09;;;;;;;25.65;12.95;;;;;;;-2.03;100.00;98626.06;4299209;82;21001;-88
2022/12/13 13:34:22;;;;;;;30.73;15.27;;;;;;;-2.17;100.00;98639.24;4295067;82;21017;-88
2022/12/13 13:40:37;;;;;;;34.63;15.40;;;;;;;-2.32;100.00;98635.55;4309078;82;21690;-88
2022/12/13 13:47:11;;;;;;;30.73;14.77;;;;;;;-2.31;100.00;98637.13;4301908;82;21033;-88
2022/12/13 13:53:12;;;;;;;31.20;15.30;;;;;;;-2.31;100.00;98635.78;4257511;82;21018;-89
2022/12/13 13:59:48;;;;;;;34.13;16.43;;;;;;;-2.35;100.00;98640.17;4234186;82;21090;-89
2022/12/13 14:06:18;;;;;;;35.17;16.67;;;;;;;-2.39;100.00;98644.53;4280250;82;21590;-89
2022/12/13 14:12:52;;;;;;;33.60;16.07;;;;;;;-2.45;100.00;98651.89;4255482;82;21478;-89
2022/12/13 14:19:19;;;;;;;37.00;17.03;;;;;;;-2.48;100.00;98655.17;4255594;81;147420;-88
2022/12/13 14:25:41;;;;;;;36.60;17.70;;;;;;;-2.51;100.00;98661.66;4383541;80;21007;-88
2022/12/13 14:31:48;;;;;;;40.50;19.10;;;;;;;-2.57;100.00;98654.29;4385765;80;21065;-88
2022/12/13 14:38:11;;;;;;;39.20;18.83;;;;;;;-2.60;100.00;98674.95;4394433;80;21050;-88
2022/12/13 14:44:18;;;;;;;42.33;19.70;;;;;;;-2.64;100.00;98671.83;4352164;80;21035;-88
2022/12/13 14:50:26;;;;;;;39.97;20.43;;;;;;;-2.74;100.00;98664.77;4393605;79;21424;-88
2022/12/13 14:56:28;;;;;;;40.83;20.47;;;;;;;-2.71;100.00;98674.89;4398895;80;20967;-87
2022/12/13 15:02:32;;;;;;;42.70;20.53;;;;;;;-2.73;100.00;98667.72;4358961;80;21052;-87
2022/12/13 15:08:36;;;;;;;36.98;18.35;;;;;;;-2.76;100.00;98674.20;4308366;80;21074;-88
2022/12/13 15:14:46;;;;;;;43.37;21.47;;;;;;;-2.87;100.00;98678.16;4320876;80;21053;-87
2022/12/13 15:20:49;;;;;;;47.50;22.20;;;;;;;-2.95;100.00;98676.95;4222644;82;21001;-88
2022/12/13 15:26:56;;;;;;;47.60;22.10;;;;;;;-2.97;100.00;98688.50;4298868;80;20996;-89
2022/12/13 15:33:09;;;;;;;40.12;18.30;;;;;;;-3.02;100.00;98691.26;4281660;80;20995;-88
2022/12/13 15:39:12;;;;;;;46.50;23.07;;;;;;;-3.08;100.00;98692.97;4334561;80;21009;-88
2022/12/13 15:45:25;;;;;;;45.13;22.93;;;;;;;-3.11;100.00;98697.58;4322982;80;21023;-88
2022/12/13 15:51:55;;;;;;;47.70;23.47;;;;;;;-3.13;100.00;98703.23;4316732;80;21889;-89
2022/12/13 15:58:00;;;;;;;44.00;22.73;;;;;;;-3.16;100.00;98704.38;4309144;80;21032;-88
2022/12/13 16:04:03;;;;;;;37.20;17.57;;;;;;;-3.21;100.00;98701.24;4284919;80;21003;-88
2022/12/13 16:10:15;;;;;;;39.30;18.33;;;;;;;-3.30;100.00;98703.78;4173611;83;21970;-89
2022/12/13 16:16:29;;;;;;;36.83;17.80;;;;;;;-3.37;100.00;98703.34;4175410;83;21069;-88
2022/12/13 16:22:33;;;;;;;37.90;18.13;;;;;;;-3.40;100.00;98703.16;4262150;81;21029;-88
2022/12/13 16:28:35;;;;;;;45.07;20.73;;;;;;;-3.43;100.00;98700.49;4276795;82;22108;-88
2022/12/13 16:34:42;;;;;;;37.80;19.30;;;;;;;-3.43;100.00;98703.17;4266187;81;21001;-89
2022/12/13 16:40:45;;;;;;;48.77;22.53;;;;;;;-3.44;100.00;98708.28;4285158;81;20975;-88
2022/12/13 16:46:47;;;;;;;51.53;23.17;;;;;;;-3.43;100.00;98710.42;4241594;82;21084;-89
2022/12/13 16:52:48;;;;;;;47.17;23.70;;;;;;;-3.45;100.00;98717.41;4151853;83;21419;-89
2022/12/13 16:58:50;;;;;;;51.00;25.10;;;;;;;-3.46;100.00;98720.37;4275596;81;21025;-89
2022/12/13 17:04:56;;;;;;;58.53;25.77;;;;;;;-3.50;100.00;98717.48;4301787;80;21197;-90
2022/12/13 17:11:00;;;;;;;56.87;24.37;;;;;;;-3.55;100.00;98714.87;4226746;82;21731;-89
2022/12/13 17:17:02;;;;;;;54.17;25.00;;;;;;;-3.57;100.00;98717.59;4233194;82;21006;-90
2022/12/13 17:23:06;;;;;;;54.93;23.27;;;;;;;-3.62;100.00;98728.36;4286001;81;21189;-89
2022/12/13 17:29:09;;;;;;;50.07;22.30;;;;;;;-3.62;100.00;98730.47;4235911;82;21044;-90
2022/12/13 17:35:11;;;;;;;45.00;22.80;;;;;;;-3.67;100.00;98732.44;4233289;81;21348;-89
2022/12/13 17:41:15;;;;;;;45.70;21.83;;;;;;;-3.68;100.00;98745.02;4220326;81;21013;-89
2022/12/13 17:47:20;;;;;;;53.10;23.03;;;;;;;-3.72;100.00;98750.70;4221966;82;21005;-89
2022/12/13 17:53:22;;;;;;;51.87;22.03;;;;;;;-3.79;100.00;98752.91;4342835;80;21051;-90
2022/12/13 17:59:27;;;;;;;53.60;23.67;;;;;;;-3.96;100.00;98751.83;4306913;80;21011;-90
2022/12/13 18:05:32;;;;;;;58.57;26.57;;;;;;;-4.01;100.00;98754.00;4314026;80;21110;-89
2022/12/13 18:11:37;;;;;;;63.97;28.10;;;;;;;-3.92;100.00;98764.34;4236873;81;21983;-89
2022/12/13 18:17:44;;;;;;;62.67;27.60;;;;;;;-3.86;100.00;98771.20;4280498;81;21044;-90
2022/12/13 18:23:54;;;;;;;62.23;29.07;;;;;;;-3.88;100.00;98773.36;4249960;81;21084;-89
2022/12/13 18:29:57;;;;;;;65.07;29.70;;;;;;;-3.89;100.00;98777.66;4280461;81;21582;-89
2022/12/13 18:35:59;;;;;;;65.90;30.13;;;;;;;-3.93;100.00;98780.67;4326103;79;21319;-90
2022/12/13 18:42:04;;;;;;;66.87;31.60;;;;;;;-4.00;100.00;98780.20;4284615;80;21020;-90
2022/12/13 18:48:06;;;;;;;77.57;35.17;;;;;;;-4.15;100.00;98782.50;4313247;80;21040;-90
2022/12/13 18:54:08;;;;;;;74.33;34.97;;;;;;;-4.14;100.00;98789.47;4326530;80;21047;-91
2022/12/13 19:00:14;;;;;;;83.27;36.80;;;;;;;-4.12;100.00;98782.49;4235783;81;21075;-90
2022/12/13 19:06:21;;;;;;;83.17;38.00;;;;;;;-4.09;100.00;98777.91;4219023;82;21121;-90
2022/12/13 19:12:26;;;;;;;88.20;41.13;;;;;;;-4.06;100.00;98763.97;4280810;81;20993;-90
2022/12/13 19:18:29;;;;;;;79.60;36.90;;;;;;;-4.19;100.00;98768.13;4280216;82;21473;-91
2022/12/13 19:24:34;;;;;;;88.43;40.57;;;;;;;-4.27;100.00;98777.30;4223041;82;21016;-90
2022/12/13 19:30:41;;;;;;;86.05;39.13;;;;;;;-4.29;100.00;98766.89;4214999;82;21939;-90
2022/12/13 19:36:44;;;;;;;91.67;40.60;;;;;;;-4.36;100.00;98761.11;4275533;82;21065;-90
2022/12/13 19:42:50;;;;;;;92.00;40.30;;;;;;;-4.40;100.00;98769.42;4278405;81;21467;-90
2022/12/13 19:48:53;;;;;;;88.73;40.87;;;;;;;-4.47;100.00;98774.31;4275513;82;21604;-90
2022/12/13 19:54:56;;;;;;;88.20;39.60;;;;;;;-4.59;100.00;98779.25;4273878;81;21320;-89
2022/12/13 20:01:03;;;;;;;116.60;46.10;;;;;;;-4.72;100.00;98773.22;4220900;83;21077;-90
2022/12/13 20:07:07;;;;;;;97.53;42.27;;;;;;;-4.88;100.00;98778.44;4214269;83;21029;-90
2022/12/13 20:13:16;;;;;;;112.47;50.83;;;;;;;-4.99;100.00;98775.06;4245254;82;21056;-91
2022/12/13 20:19:16;;;;;;;128.62;58.73;;;;;;;-5.01;100.00;98776.40;4318293;81;20996;-91
2022/12/13 20:25:19;;;;;;;108.30;49.03;;;;;;;-5.00;100.00;98773.48;4299667;81;21103;-91
2022/12/13 20:31:24;;;;;;;111.70;54.10;;;;;;;-5.13;100.00;98770.10;4316267;81;21050;-90
2022/12/13 20:37:28;;;;;;;119.08;54.38;;;;;;;-5.26;100.00;98767.28;4308186;81;20997;-91
2022/12/13 20:43:32;;;;;;;126.33;56.50;;;;;;;-5.40;100.00;98771.09;4305226;80;20984;-91
2022/12/13 20:49:33;;;;;;;119.87;57.17;;;;;;;-5.53;100.00;98772.25;4315075;80;21079;-91
2022/12/13 20:55:37;;;;;;;122.67;56.63;;;;;;;-5.52;100.00;98772.50;4309783;81;22016;-91
2022/12/13 21:01:40;;;;;;;123.90;52.73;;;;;;;-5.74;100.00;98765.42;4311291;80;21737;-91
2022/12/13 21:14:23;;;;;;;122.93;54.63;;;;;;;-6.13;100.00;98776.05;4324362;79;21932;-91
2022/12/13 21:27:33;;;;;;;125.17;53.60;;;;;;;-6.57;99.72;98777.23;4328104;79;21021;-91
2022/12/13 21:33:55;;;;;;;116.97;51.90;;;;;;;-6.86;99.37;98774.87;4258526;82;20995;-92
2022/12/13 21:40:04;;;;;;;119.73;52.43;;;;;;;-7.04;99.39;98777.28;4262903;80;21128;-92
2022/12/13 21:46:12;;;;;;;110.40;51.37;;;;;;;-7.12;100.00;98782.61;4259504;82;21090;-91
2022/12/13 21:52:21;;;;;;;137.70;56.53;;;;;;;-7.18;100.00;98778.36;4238634;82;21066;-90
2022/12/13 22:04:54;;;;;;;171.00;67.97;;;;;;;-7.54;99.20;98787.88;4241322;82;21248;-90
2022/12/13 22:11:12;;;;;;;159.03;63.10;;;;;;;-7.77;99.04;98795.81;4221535;82;21033;-91
2022/12/13 22:17:14;;;;;;;141.53;57.17;;;;;;;-8.00;98.74;98785.62;4215824;83;22165;-90
2022/12/13 22:23:21;;;;;;;159.93;63.37;;;;;;;-7.94;100.00;98791.77;4210679;83;21399;-92
2022/12/13 22:29:26;;;;;;;153.77;59.47;;;;;;;-8.10;98.38;98781.61;4204744;83;21049;-91
2022/12/13 22:35:28;;;;;;;158.53;63.57;;;;;;;-8.43;97.68;98769.55;4216517;83;21042;-91
2022/12/13 22:41:33;;;;;;;144.47;60.00;;;;;;;-8.43;98.29;98784.67;4217047;83;21113;-90
2022/12/13 22:47:37;;;;;;;148.68;60.80;;;;;;;-8.29;99.94;98784.48;4229399;82;21031;-90
2022/12/13 22:53:45;;;;;;;173.10;67.87;;;;;;;-8.20;99.88;98782.37;4197252;83;21058;-90
2022/12/13 22:59:47;;;;;;;168.53;66.47;;;;;;;-8.49;97.74;98773.77;4218535;82;21114;-92
2022/12/13 23:05:56;;;;;;;171.27;71.50;;;;;;;-8.88;96.89;98766.61;4223451;81;22312;-91
2022/12/13 23:18:26;;;;;;;168.40;66.17;;;;;;;-9.23;97.87;98767.70;4217882;81;21090;-90
2022/12/13 23:24:44;;;;;;;159.53;64.33;;;;;;;-9.23;98.13;98757.61;4213761;81;21059;-90
2022/12/13 23:30:43;;;;;;;148.10;60.70;;;;;;;-9.31;97.49;98756.74;4216252;81;21059;-90
2022/12/13 23:36:47;;;;;;;151.27;63.90;;;;;;;-9.34;97.88;98753.28;4189571;81;21066;-92
2022/12/13 23:43:05;;;;;;;142.23;58.63;;;;;;;-9.59;96.08;98745.11;4225895;81;20986;-92
2022/12/13 23:49:31;;;;;;;190.27;77.50;;;;;;;-9.61;97.02;98744.58;4199133;83;21018;-92
2022/12/13 23:55:36;;;;;;;201.07;80.10;;;;;;;-9.80;96.39;98748.09;4213686;83;21039;-90
